Little Falls, WV (26508)

7:40 PM EST on November 26, 2014 (GMT -0500)
Brooks green roof | Change Station
CLOSE
Current Station
Personal Weather Station
Location: Morgantown, WV
Elevation: 873 ft
Nearby Weather Stations

Elev 873 ft 39.64 °N, 79.96 °W | Updated 1 minute ago

Light Snow
Light Snow Mist
35.2 °F
Feels Like 35 °F
N
0.0
Wind Variable Wind from SE
Gusts 0.0 mph

Today
High -- | Low -- °F
--% Chance of Precip.
Yesterday
High -- | Low -- °F
Precip. -- in
7:16 AM 4:57 PM
Waxing Crescent, 24% visible
Pressure 30.03 in
Visibility 5.0 miles
Clouds Overcast 700 ft
Windchill 35 °F
Dew Point 32 °F
Humidity 89%
Rainfall 0.22 in
Snow Depth Not available.
UV 0 out of 12
Pollen .10 out of 12
Air Quality Not available.
Flu Activity Not available.
METAR KMGW 262353Z 11003KT 5SM -SN BR OVC007 01/M01 A3000 RMK AO2 SLP168 P0000 60005 I6000 T00061011 10011 20006 58007

More Conditions Fewer Conditions

Pressure 30.03 in
Visibility 5.0 miles
Clouds Overcast 700 ft
Windchill 35 °F
Dew Point 32 °F
Humidity 89%
Rainfall 0.22 in
Snow Depth Not available.
UV 0 out of 12
Pollen .10 out of 12
Air Quality Not available.
Flu Activity Not available.
METAR KMGW 262353Z 11003KT 5SM -SN BR OVC007 01/M01 A3000 RMK AO2 SLP168 P0000 60005 I6000 T00061011 10011 20006 58007

More Conditions Fewer Conditions

10-Day Weather Forecast

Almanac

Astronomy

Nov. 26, 2014 Rise Set
Actual Time
Civil Twilight
Nautical Twilight
Astronomical Twilight
Moon
Length of Visible Light
Length of Day
Tomorrow will be .
, % of the Moon is Illuminated

Today's Extremes

State Highs State Lows

Community

WunderPhotos

Upload Photos

1,773,930 photos uploaded!

WunderBlogs® & News

Nearby

Air Quality

  Air Quality AQ Index Pollutant
Not available.

Snow Depth

Station Depth Elevation

Earthquake Activity

City Distance Mag. Time & Date
Minimum magnitude displayed is 2.5.

Coastal Water Temperatures

Place Temperature

Nearby Weather Stations